Thunder radar more information blitzortung!


Radar de pluja more information rain snow radar


Visita la nostra xarxa de llocs de meteo:

Template documentation
and downloads

And another site



No particular awareness of the weather is required.    There are no Weather-warnings

Pagina Historial Weather Underground text

Diari Resum Agost 11, 2017 Unitats:  Imperial    Mètric   Tant
« Previous Dia
SegĂźent Dia »
Diari Setmana Mensual Anual Personalitzada
  Maxima: Minima: Media:
Temperatura: 81.5 °F 59.5 °F 71.6 °F
Punt de rosada: 57 °F 42.1 °F 52.7 °F
Humitat: 76 % 32 % 53 %
Wind Speed: 15 mph 0 mph 4.4 mph
RĂ fegues de vent: 15 mph - -
Vent:- - ESE
Pression baro: 30.2 in 30.1 in -
Precipitacions: 0 in    
Historical Graphs
 
 
Dades de taula per Agost 11, 2017
Temps Temperatura Punt de rosada Pression baro Vent Wind Speed RĂ fegues de vent Humitat Rainfall Rate (Hourly)
00:00 70.5 °F 51.1 °F 30.1 in WSW 1.4 mph 1.4 mph 50 % 0 in
00:05 70.5 °F 50.4 °F 30.1 in WSW 3.5 mph 3.5 mph 49 % 0 in
00:10 70.5 °F 50.4 °F 30.1 in NW 3.5 mph 3.5 mph 49 % 0 in
00:15 70.3 °F 49.6 °F 30.1 in North 2.3 mph 2.3 mph 48 % 0 in
00:20 70.3 °F 49.6 °F 30.1 in ENE 2.3 mph 2.3 mph 48 % 0 in
00:25 70.2 °F 48.9 °F 30.1 in NNE 3.1 mph 3.1 mph 47 % 0 in
00:30 70.2 °F 48.9 °F 30.1 in East 2.3 mph 2.3 mph 47 % 0 in
00:35 70 °F 48.7 °F 30.1 in ENE 2.3 mph 2.3 mph 47 % 0 in
00:40 69.6 °F 49.1 °F 30.1 in ENE 1.6 mph 1.6 mph 48 % 0 in
00:45 69.4 °F 48.9 °F 30.1 in East 1.2 mph   48 % 0 in
00:50 69.3 °F 48.7 °F 30.1 in West 2.3 mph 2.3 mph 48 % 0 in
00:55 69.1 °F 48.6 °F 30.1 in West 1.2 mph   48 % 0 in
01:00 68.9 °F 48.4 °F 30.1 in West 3.5 mph 3.5 mph 48 % 0 in
01:05 68.7 °F 48.2 °F 30.1 in West 5.8 mph 5.8 mph 48 % 0 in
01:10 68.5 °F 47.5 °F 30.1 in WSW 4.6 mph 4.6 mph 47 % 0 in
01:15 68.4 °F 47.3 °F 30.1 in NE 2.3 mph 2.3 mph 47 % 0 in
01:20 68.2 °F 47.1 °F 30.1 in NNE 1.4 mph   47 % 0 in
01:25 68 °F 46.9 °F 30.1 in Calm     47 % 0 in
01:30 67.6 °F 47.1 °F 30.1 in WSW 3.5 mph 3.5 mph 48 % 0 in
01:40 59.7 °F 42.1 °F 30.1 in West 2 mph 3 mph 52 % 0 in
01:50 59.5 °F 42.4 °F 30.1 in WNW 1 mph 4 mph 53 % 0 in
02:00 59.5 °F 42.4 °F 30.1 in West 1 mph 3 mph 53 % 0 in
02:10 59.5 °F 43 °F 30.1 in NNE 1 mph 4 mph 54 % 0 in
02:20 59.5 °F 43 °F 30.1 in NE 1 mph 2 mph 54 % 0 in
02:30 59.7 °F 43 °F 30.1 in NNW 1 mph 3 mph 54 % 0 in
02:40 60.4 °F 43.7 °F 30.1 in WNW 1 mph 2 mph 54 % 0 in
02:50 60.1 °F 43.9 °F 30.1 in WSW 1 mph 3 mph 55 % 0 in
03:10 60.8 °F 44.4 °F 30.1 in West 1 mph 2 mph 55 % 0 in
03:20 62.2 °F 45.9 °F 30.1 in North 3 mph 5 mph 55 % 0 in
03:30 63.1 °F 46.2 °F 30.1 in North 2 mph 3 mph 54 % 0 in
03:40 62.6 °F 45.1 °F 30.1 in NE 1 mph 4 mph 53 % 0 in
03:50 63 °F 45.7 °F 30.1 in NE 3 mph 5 mph 53 % 0 in
04:00 63.9 °F 46.4 °F 30.1 in NE 1 mph 4 mph 53 % 0 in
04:10 64.6 °F 47.1 °F 30.1 in NE 1 mph 4 mph 53 % 0 in
04:20 65.3 °F 47.7 °F 30.1 in NE 1 mph 3 mph 53 % 0 in
04:30 65.5 °F 47.5 °F 30.1 in ENE 3 mph 4 mph 52 % 0 in
04:40 65.8 °F 47.7 °F 30.1 in NE 1 mph 3 mph 52 % 0 in
04:50 66.4 °F 47.7 °F 30.1 in NNE 2 mph 3 mph 51 % 0 in
05:00 67.1 °F 47.8 °F 30.1 in NNE 1 mph 3 mph 50 % 0 in
05:10 66.6 °F 47.3 °F 30.1 in NNE 3 mph 5 mph 50 % 0 in
05:20 67.3 °F 48 °F 30.1 in NE 3 mph 4 mph 50 % 0 in
05:30 67.8 °F 48.6 °F 30.1 in ENE 3 mph 4 mph 50 % 0 in
10:34 69.1 °F 49.6 °F 30.1 in ENE 3.5 mph 3.5 mph 50 % 0 in
10:35 69.1 °F 49.6 °F 30.1 in ENE 3.5 mph 3.5 mph 50 % 0 in
10:40 69.3 °F 49.8 °F 30.1 in SE 2.4 mph 2.4 mph 50 % 0 in
10:45 70 °F 49.8 °F 30.1 in ENE 4.9 mph 4.9 mph 49 % 0 in
10:50 70.2 °F 50.2 °F 30.1 in WNW 2.9 mph 2.9 mph 49 % 0 in
10:55 70.7 °F 50 °F 30.1 in ENE 2.4 mph 2.4 mph 48 % 0 in
11:00 69.8 °F 49.3 °F 30.1 in ESE 2.4 mph 2.4 mph 48 % 0 in
11:05 69.6 °F 49.6 °F 30.1 in ENE 8.1 mph 8.1 mph 49 % 0 in
11:10 69.8 °F 49.3 °F 30.1 in ESE 4.6 mph 4.6 mph 48 % 0 in
11:15 71.2 °F 50.5 °F 30.1 in ENE 2.9 mph 2.9 mph 48 % 0 in
11:20 69.8 °F 48.7 °F 30.1 in ESE 5.8 mph 5.8 mph 47 % 0 in
11:25 70.9 °F 50.2 °F 30.1 in ESE 4.6 mph 4.6 mph 48 % 0 in
11:30 72 °F 50.5 °F 30.1 in South 3.5 mph 3.5 mph 47 % 0 in
11:35 73 °F 51.6 °F 30.1 in SSE 3.5 mph 3.5 mph 47 % 0 in
11:40 72.7 °F 50.2 °F 30.1 in SSE 5.8 mph 5.8 mph 45 % 0 in
11:45 72.5 °F 50.5 °F 30.1 in NE 2.3 mph 2.3 mph 46 % 0 in
11:50 72.1 °F 49.6 °F 30.1 in East 4.3 mph 4.3 mph 45 % 0 in
11:55 72.5 °F 49.8 °F 30.1 in ENE 4.6 mph 4.6 mph 45 % 0 in
12:00 73.8 °F 51.1 °F 30.1 in West 3.5 mph 3.5 mph 45 % 0 in
12:05 73.6 °F 50.4 °F 30.1 in ESE 4.6 mph 4.6 mph 44 % 0 in
12:10 73.8 °F 50.5 °F 30.1 in NNW 2.3 mph 2.3 mph 44 % 0 in
12:15 74.7 °F 51.3 °F 30.1 in ENE 2.3 mph 2.3 mph 44 % 0 in
12:20 75.2 °F 50.5 °F 30.1 in South 4 mph 4 mph 42 % 0 in
12:25 75.2 °F 50.5 °F 30.1 in SSE 5.8 mph 5.8 mph 42 % 0 in
12:30 75.4 °F 51.3 °F 30.1 in SW 4.6 mph 4.6 mph 43 % 0 in
12:35 75.6 °F 50.9 °F 30.1 in SW 4.6 mph 4.6 mph 42 % 0 in
12:40 74.7 °F 50 °F 30.1 in WNW 4.6 mph 4.6 mph 42 % 0 in
12:45 75.7 °F 50.4 °F 30.1 in WSW 2.9 mph 2.9 mph 41 % 0 in
12:50 76.3 °F 50.7 °F 30.1 in NW 3.5 mph 3.5 mph 41 % 0 in
12:55 76.3 °F 50.7 °F 30.1 in SSW 1.2 mph   41 % 0 in
13:00 78.3 °F 52 °F 30.1 in SW 3.6 mph 3.6 mph 40 % 0 in
13:05 79 °F 52.5 °F 30.1 in South 4.6 mph 4.6 mph 40 % 0 in
13:10 79.9 °F 52 °F 30.1 in South 6.9 mph 6.9 mph 38 % 0 in
13:15 79.7 °F 51.8 °F 30.1 in SSE 3.5 mph 3.5 mph 38 % 0 in
13:20 79.7 °F 51.8 °F 30.1 in SSE 3.5 mph 3.5 mph 38 % 0 in
13:25 79.7 °F 51.1 °F 30.1 in East 3.3 mph 3.3 mph 37 % 0 in
13:30 80.6 °F 51.3 °F 30.1 in SSW 5.8 mph 5.8 mph 36 % 0 in
13:35 78.8 °F 48 °F 30.1 in SW 5.8 mph 5.8 mph 34 % 0 in
13:40 79.3 °F 48.6 °F 30.1 in ESE 5.9 mph 5.9 mph 34 % 0 in
13:45 80.1 °F 49.8 °F 30.1 in SE 3.5 mph 3.5 mph 35 % 0 in
13:50 80.2 °F 47.7 °F 30.1 in SSE 5.8 mph 5.8 mph 32 % 0 in
13:55 79.3 °F 47.7 °F 30.1 in North 5.8 mph 5.8 mph 33 % 0 in
14:00 79.9 °F 48.2 °F 30.1 in SW 5.8 mph 5.8 mph 33 % 0 in
14:05 80.6 °F 48 °F 30.1 in SSE 3.5 mph 3.5 mph 32 % 0 in
14:10 81.3 °F 48.6 °F 30.1 in South 4.6 mph 4.6 mph 32 % 0 in
14:15 81.5 °F 48.7 °F 30.1 in ESE 4.7 mph 4.7 mph 32 % 0 in
14:20 81.5 °F 48.7 °F 30.1 in SSW 4.6 mph 4.6 mph 32 % 0 in
14:25 80.8 °F 48.2 °F 30.1 in ESE 8.1 mph 8.1 mph 32 % 0 in
14:30 79.2 °F 47.7 °F 30.1 in ENE 5.8 mph 5.8 mph 33 % 0 in
14:35 79.3 °F 49.3 °F 30.1 in SE 6.9 mph 6.9 mph 35 % 0 in
14:40 79.3 °F 51.4 °F 30.1 in South 8.1 mph 8.1 mph 38 % 0 in
14:45 79.2 °F 52.2 °F 30.1 in ENE 15 mph 15 mph 39 % 0 in
14:50 78.6 °F 51.6 °F 30.1 in SSE 9.2 mph 9.2 mph 39 % 0 in
14:55 79.2 °F 52.9 °F 30.1 in ESE 6.9 mph 6.9 mph 40 % 0 in
15:00 79.5 °F 53.1 °F 30.1 in WSW 10.4 mph 10.4 mph 40 % 0 in
15:05 78.8 °F 53.1 °F 30.1 in SW 5.8 mph 5.8 mph 41 % 0 in
15:10 79.7 °F 54 °F 30.1 in SSE 8.1 mph 8.1 mph 41 % 0 in
15:11 79.3 °F 53.6 °F 30.1 in South 8.1 mph 8.1 mph 41 % 0 in
15:16 78.3 °F 53.2 °F 30.1 in East 8.7 mph 8.7 mph 42 % 0 in
15:21 78.6 °F 53.6 °F 30.1 in South 6.9 mph 6.9 mph 42 % 0 in
15:26 78.4 °F 54.1 °F 30.1 in ESE 5.8 mph 5.8 mph 43 % 0 in
15:27 78.4 °F 54.1 °F 30.1 in East 6 mph 6 mph 43 % 0 in
15:32 77.2 °F 52.9 °F 30.1 in ESE 11.5 mph 11.5 mph 43 % 0 in
15:37 76.6 °F 53.1 °F 30.1 in ESE 5.8 mph 5.8 mph 44 % 0 in
15:42 76.3 °F 52.9 °F 30.1 in SE 6.9 mph 6.9 mph 44 % 0 in
15:47 76.3 °F 53.4 °F 30.1 in ENE 13.8 mph 13.8 mph 45 % 0 in
15:52 76.3 °F 54 °F 30.1 in East 9.2 mph 9.2 mph 46 % 0 in
15:57 76.3 °F 54 °F 30.1 in ESE 8.1 mph 8.1 mph 46 % 0 in
15:58 76.3 °F 54 °F 30.1 in SE 5.8 mph 5.8 mph 46 % 0 in
16:03 76.3 °F 54 °F 30.1 in SE 7.8 mph 7.8 mph 46 % 0 in
16:08 75.7 °F 54.1 °F 30.1 in South 9.2 mph 9.2 mph 47 % 0 in
16:13 75.9 °F 54.1 °F 30.1 in ENE 3.5 mph 3.6 mph 47 % 0 in
16:18 75.4 °F 53.8 °F 30.1 in ESE 9.2 mph 9.2 mph 47 % 0 in
16:23 75 °F 54 °F 30.1 in ESE 8.1 mph 8.1 mph 48 % 0 in
16:24 75 °F 54 °F 30.1 in SE 10.4 mph 10.4 mph 48 % 0 in
16:29 75.2 °F 54.1 °F 30.1 in SSE 5.8 mph 5.8 mph 48 % 0 in
16:34 75.2 °F 54.1 °F 30.1 in South 6.9 mph 6.9 mph 48 % 0 in
16:39 75.4 °F 54.3 °F 30.1 in East 3.5 mph 3.5 mph 48 % 0 in
16:44 75.6 °F 54.5 °F 30.1 in SSE 6.9 mph 6.9 mph 48 % 0 in
16:49 75.4 °F 54.3 °F 30.1 in ESE 5.6 mph 5.6 mph 48 % 0 in
16:54 75 °F 54 °F 30.1 in SE 4.6 mph 4.6 mph 48 % 0 in
16:59 75 °F 54.7 °F 30.1 in ESE 6.9 mph 6.9 mph 49 % 0 in
17:04 75 °F 54.7 °F 30.1 in SSE 7.1 mph 7.1 mph 49 % 0 in
17:09 75 °F 54.7 °F 30.1 in SW 4.6 mph 4.6 mph 49 % 0 in
17:14 75 °F 54.7 °F 30.1 in ESE 3.5 mph 3.5 mph 49 % 0 in
17:19 75.2 °F 54.7 °F 30.1 in East 2.9 mph 2.9 mph 49 % 0 in
17:24 75.4 °F 54.9 °F 30.1 in SW 3.5 mph 3.5 mph 49 % 0 in
17:29 75.2 °F 55.2 °F 30.1 in ESE 3.5 mph 3.6 mph 50 % 0 in
17:34 74.7 °F 54.9 °F 30.1 in NE 8.1 mph 8.1 mph 50 % 0 in
17:39 75 °F 55 °F 30.1 in ESE 7.4 mph 7.4 mph 50 % 0 in
17:44 75.2 °F 55.2 °F 30.1 in SSE 5.8 mph 5.8 mph 50 % 0 in
17:49 75 °F 55 °F 30.1 in ESE 6.9 mph 6.9 mph 50 % 0 in
17:54 75 °F 55 °F 30.1 in ESE 6.9 mph 6.9 mph 50 % 0 in
17:59 75 °F 55 °F 30.1 in ESE 7.8 mph 7.8 mph 50 % 0 in
18:04 75.2 °F 55.2 °F 30.1 in ESE 8.1 mph 8.1 mph 50 % 0 in
18:09 75.2 °F 55.2 °F 30.1 in ESE 6.9 mph 6.9 mph 50 % 0 in
18:14 75 °F 55 °F 30.1 in South 5.8 mph 5.8 mph 50 % 0 in
18:19 74.5 °F 54.7 °F 30.1 in ESE 9.2 mph 9.2 mph 50 % 0 in
18:24 74.7 °F 54.9 °F 30.1 in SSE 3.8 mph 4 mph 50 % 0 in
18:29 74.7 °F 54.9 °F 30.1 in South 5.8 mph 5.8 mph 50 % 0 in
18:34 74.3 °F 54.5 °F 30.1 in NE 6.9 mph 6.9 mph 50 % 0 in
18:39 73.9 °F 54.1 °F 30.1 in ESE 9.2 mph 9.2 mph 50 % 0 in
18:44 73.9 °F 54.1 °F 30.1 in ESE 6.9 mph 6.9 mph 50 % 0 in
18:49 74.1 °F 54.9 °F 30.1 in East 11.8 mph 11.8 mph 51 % 0 in
18:54 73.9 °F 55.2 °F 30.1 in East 9.2 mph 9.2 mph 52 % 0 in
18:59 73.6 °F 55.4 °F 30.1 in ESE 10.2 mph 10.2 mph 53 % 0 in
19:04 73.4 °F 56.1 °F 30.1 in SE 9.2 mph 9.2 mph 55 % 0 in
19:09 73.2 °F 56.1 °F 30.1 in ESE 8.1 mph 8.1 mph 55 % 0 in
19:14 73 °F 56.5 °F 30.1 in ESE 9.2 mph 9.2 mph 56 % 0 in
19:19 73.4 °F 56.1 °F 30.1 in East 5.8 mph 5.8 mph 55 % 0 in
19:20 67.6 °F 55.9 °F 30.2 in NE 2 mph 2 mph 66 % 0 in
19:24 73.4 °F 56.1 °F 30.1 in SSE 3.6 mph 3.6 mph 55 % 0 in
19:26 73.2 °F 56.1 °F 30.1 in South 8.1 mph 8.1 mph 55 % 0 in
19:30 67.5 °F 56.1 °F 30.2 in NE 2 mph 3 mph 67 % 0 in
19:31 73 °F 55.9 °F 30.1 in SE 5.8 mph 5.8 mph 55 % 0 in
19:36 73 °F 55.9 °F 30.1 in ESE 6.2 mph 6.2 mph 55 % 0 in
19:40 67.5 °F 56.1 °F 30.2 in NNE 2 mph 3 mph 67 % 0 in
19:41 72.9 °F 55.8 °F 30.1 in SSE 5.8 mph 5.8 mph 55 % 0 in
19:46 72.7 °F 56.1 °F 30.1 in SSE 8.5 mph 8.5 mph 56 % 0 in
19:50 67.3 °F 56.5 °F 30.2 in NNE 2 mph 3 mph 68 % 0 in
19:51 72.7 °F 56.1 °F 30.1 in ESE 4.6 mph 4.6 mph 56 % 0 in
19:56 72.5 °F 55.9 °F 30.1 in SE 9.8 mph 9.8 mph 56 % 0 in
20:00 67.3 °F 56.8 °F 30.2 in NE 2 mph 3 mph 69 % 0 in
20:01 72.1 °F 56.1 °F 30.1 in ESE 8.1 mph 8.1 mph 57 % 0 in
20:06 72 °F 55.9 °F 30.1 in ESE 6.9 mph 6.9 mph 57 % 0 in
20:10 67.3 °F 56.8 °F 30.2 in NNE 1 mph 2 mph 69 % 0 in
20:11 72 °F 55.9 °F 30.1 in ESE 2.3 mph 2.9 mph 57 % 0 in
20:16 72 °F 56.5 °F 30.1 in ESE 4.6 mph 4.6 mph 58 % 0 in
20:20 67.1 °F 56.7 °F 30.2 in NNE 2 mph 2 mph 69 % 0 in
20:21 71.8 °F 55.8 °F 30.1 in ESE 6.9 mph 6.9 mph 57 % 0 in
20:26 71.6 °F 55.6 °F 30.1 in ESE 6.2 mph 6.2 mph 57 % 0 in
20:30 66.7 °F 56.7 °F 30.2 in NNE 1 mph 2 mph 70 % 0 in
20:31 71.6 °F 55.9 °F 30.1 in ESE 8.1 mph 8.1 mph 58 % 0 in
20:36 71.4 °F 56.3 °F 30.1 in ENE 4.6 mph 4.6 mph 59 % 0 in
20:40 66.6 °F 56.5 °F 30.2 in NNE 1 mph 2 mph 70 % 0 in
20:41 71.4 °F 56.3 °F 30.1 in ENE 9.8 mph 9.8 mph 59 % 0 in
20:46 71.2 °F 56.1 °F 30.1 in ESE 9.2 mph 9.2 mph 59 % 0 in
20:50 66.4 °F 56.7 °F 30.2 in Calm   1 mph 71 % 0 in
20:51 71.1 °F 55.9 °F 30.1 in East 6.9 mph 6.9 mph 59 % 0 in
20:56 71.1 °F 55.9 °F 30.1 in ESE 5.8 mph 5.8 mph 59 % 0 in
21:00 66.2 °F 56.5 °F 30.2 in Calm   1 mph 71 % 0 in
21:01 71.1 °F 55.9 °F 30.1 in ESE 7.1 mph 7.1 mph 59 % 0 in
21:06 70.9 °F 56.3 °F 30.1 in ESE 5.8 mph 5.8 mph 60 % 0 in
21:10 65.8 °F 56.7 °F 30.2 in Calm   1 mph 72 % 0 in
21:11 70.7 °F 56.1 °F 30.1 in ESE 5.8 mph 5.8 mph 60 % 0 in
21:16 70.7 °F 56.1 °F 30.1 in NE 6.9 mph 6.9 mph 60 % 0 in
21:20 65.8 °F 56.8 °F 30.2 in Calm     73 % 0 in
21:21 70.9 °F 56.3 °F 30.1 in East 3.6 mph 3.6 mph 60 % 0 in
21:26 70.7 °F 56.7 °F 30.1 in SE 6 mph 6 mph 61 % 0 in
21:30 65.8 °F 56.8 °F 30.2 in NNE 2 mph 2 mph 73 % 0 in
21:31 70.7 °F 56.7 °F 30.1 in ESE 3.6 mph 3.6 mph 61 % 0 in
21:36 70.7 °F 56.7 °F 30.1 in SE 3.8 mph 3.8 mph 61 % 0 in
21:40 65.8 °F 56.8 °F 30.2 in NNE 2 mph 3 mph 73 % 0 in
21:41 70.7 °F 56.7 °F 30.1 in SE 3.5 mph 3.5 mph 61 % 0 in
21:46 70.5 °F 56.5 °F 30.1 in ESE 5.8 mph 5.8 mph 61 % 0 in
21:50 65.7 °F 56.8 °F 30.1 in NNE 2 mph 2 mph 73 % 0 in
21:51 70.5 °F 56.5 °F 30.1 in ENE 3.5 mph 3.5 mph 61 % 0 in
21:56 70.5 °F 56.5 °F 30.1 in ESE 6.9 mph 6.9 mph 61 % 0 in
22:00 65.5 °F 56.7 °F 30.1 in NNE 1 mph 2 mph 73 % 0 in
22:01 70.3 °F 56.1 °F 30.1 in NE 5.8 mph 5.8 mph 61 % 0 in
22:06 70.2 °F 56.1 °F 30.1 in ESE 4.6 mph 4.6 mph 61 % 0 in
22:10 65.5 °F 56.7 °F 30.2 in Calm   2 mph 73 % 0 in
22:11 70.2 °F 56.1 °F 30.1 in East 5.8 mph 5.8 mph 61 % 0 in
22:16 70.2 °F 56.5 °F 30.1 in East 3.3 mph 3.3 mph 62 % 0 in
22:20 65.1 °F 56.7 °F 30.2 in Calm     74 % 0 in
22:21 70 °F 56.5 °F 30.1 in ESE 3.5 mph 3.5 mph 62 % 0 in
22:26 70 °F 56.5 °F 30.1 in ESE 3.8 mph 3.8 mph 62 % 0 in
22:30 64.9 °F 56.5 °F 30.2 in Calm     74 % 0 in
22:31 69.8 °F 56.1 °F 30.1 in ENE 2.9 mph 2.9 mph 62 % 0 in
22:36 69.8 °F 56.1 °F 30.1 in ESE 4.6 mph 4.6 mph 62 % 0 in
22:38 69.8 °F 56.1 °F 30.1 in SE 3.5 mph 3.5 mph 62 % 0 in
22:40 65.1 °F 57 °F 30.2 in Calm   2 mph 75 % 0 in
22:43 69.6 °F 55.9 °F 30.1 in ESE 3.5 mph 3.5 mph 62 % 0 in
22:48 69.4 °F 55.9 °F 30.1 in ENE 2.3 mph 2.3 mph 62 % 0 in
22:50 65.1 °F 57 °F 30.2 in Calm   2 mph 75 % 0 in
22:53 69.3 °F 55.8 °F 30.1 in NE 2.3 mph 2.3 mph 62 % 0 in
22:58 69.1 °F 55 °F 30.1 in ENE 4.6 mph 4.6 mph 61 % 0 in
23:00 65.1 °F 57 °F 30.2 in NNE 1 mph 1 mph 75 % 0 in
23:03 68.9 °F 54.9 °F 30.2 in ENE 1.2 mph 1.2 mph 61 % 0 in
23:08 68.9 °F 55.2 °F 30.2 in NE 2.3 mph 2.3 mph 62 % 0 in
23:10 64.9 °F 56.8 °F 30.1 in NNE 1 mph 2 mph 75 % 0 in
23:13 68.7 °F 55.6 °F 30.2 in ENE 2.3 mph 2.3 mph 63 % 0 in
23:18 68.7 °F 55.6 °F 30.2 in East 3.5 mph 3.5 mph 63 % 0 in
23:20 64.9 °F 56.8 °F 30.1 in NNE 1 mph 2 mph 75 % 0 in
23:23 68.4 °F 55.2 °F 30.2 in ENE 2.3 mph 2.3 mph 63 % 0 in
23:28 68.4 °F 55.2 °F 30.2 in ENE 2.3 mph 2.3 mph 63 % 0 in
23:30 64.6 °F 56.5 °F 30.1 in NNE 1 mph 2 mph 75 % 0 in
23:33 68.2 °F 55 °F 30.2 in NE 2.3 mph 2.3 mph 63 % 0 in
23:38 68.2 °F 55 °F 30.2 in ENE 2.3 mph 2.3 mph 63 % 0 in
23:40 64.4 °F 56.7 °F 30.1 in NNE 1 mph 2 mph 76 % 0 in
23:43 68.2 °F 55 °F 30.2 in NE 2.9 mph 2.9 mph 63 % 0 in
23:48 68 °F 54.9 °F 30.2 in NNE 2.4 mph 2.4 mph 63 % 0 in
23:50 64.2 °F 56.5 °F 30.1 in Calm   1 mph 76 % 0 in
23:53 68.2 °F 55 °F 30.2 in ENE 2.4 mph 2.4 mph 63 % 0 in
23:58 68.2 °F 55 °F 30.2 in NNE 2.4 mph 2.4 mph 63 % 0 in
Meteo Sesrovires
Elogis d' Weather Underground - 3.75 mb

Guio original per  Jim McMurry - jmcmurry@mwt.net Adaptat per a la plantilla per  Wim van der Kuil - Leuven-Template.eu

Trobareu la nostra informacio del temps tambe a:

Weather Underground

AWEKAS